sensor_id;sensor_type;location;lat;lon;timestamp;P1;durP1;ratioP1;P2;durP2;ratioP2
37895;SDS011;23733;53.254;10.430;2022-07-29T00:00:38;4.90;;;1.83;;
37895;SDS011;23733;53.254;10.430;2022-07-29T00:03:04;3.43;;;1.60;;
37895;SDS011;23733;53.254;10.430;2022-07-29T00:05:30;1.90;;;1.40;;
37895;SDS011;23733;53.254;10.430;2022-07-29T00:07:57;8.10;;;1.50;;
37895;SDS011;23733;53.254;10.430;2022-07-29T00:10:23;2.63;;;1.30;;
37895;SDS011;23733;53.254;10.430;2022-07-29T00:12:49;6.00;;;1.70;;
37895;SDS011;23733;53.254;10.430;2022-07-29T00:15:15;6.60;;;1.60;;
37895;SDS011;23733;53.254;10.430;2022-07-29T00:17:41;4.90;;;1.40;;
37895;SDS011;23733;53.254;10.430;2022-07-29T00:20:07;3.43;;;1.50;;
37895;SDS011;23733;53.254;10.430;2022-07-29T00:22:36;5.60;;;1.60;;
37895;SDS011;23733;53.254;10.430;2022-07-29T00:25:03;7.20;;;2.00;;
37895;SDS011;23733;53.254;10.430;2022-07-29T00:27:29;5.37;;;1.77;;
37895;SDS011;23733;53.254;10.430;2022-07-29T00:29:56;5.10;;;1.80;;
37895;SDS011;23733;53.254;10.430;2022-07-29T00:32:22;10.70;;;1.57;;
37895;SDS011;23733;53.254;10.430;2022-07-29T00:34:48;4.30;;;1.50;;
37895;SDS011;23733;53.254;10.430;2022-07-29T00:37:32;4.40;;;1.90;;
37895;SDS011;23733;53.254;10.430;2022-07-29T00:39:58;2.90;;;1.60;;
37895;SDS011;23733;53.254;10.430;2022-07-29T00:42:24;2.97;;;1.50;;
37895;SDS011;23733;53.254;10.430;2022-07-29T00:44:50;4.23;;;1.60;;
37895;SDS011;23733;53.254;10.430;2022-07-29T00:47:16;5.33;;;1.67;;
37895;SDS011;23733;53.254;10.430;2022-07-29T00:49:42;2.23;;;1.53;;
37895;SDS011;23733;53.254;10.430;2022-07-29T00:52:09;3.20;;;1.53;;
37895;SDS011;23733;53.254;10.430;2022-07-29T00:54:37;3.70;;;1.97;;
37895;SDS011;23733;53.254;10.430;2022-07-29T00:57:04;5.73;;;1.93;;
37895;SDS011;23733;53.254;10.430;2022-07-29T00:59:32;1.73;;;1.50;;
37895;SDS011;23733;53.254;10.430;2022-07-29T01:01:58;3.73;;;1.80;;
37895;SDS011;23733;53.254;10.430;2022-07-29T01:04:24;3.57;;;1.70;;
37895;SDS011;23733;53.254;10.430;2022-07-29T01:06:50;6.23;;;2.03;;
37895;SDS011;23733;53.254;10.430;2022-07-29T01:09:17;4.80;;;1.90;;
37895;SDS011;23733;53.254;10.430;2022-07-29T01:11:44;4.60;;;1.93;;
37895;SDS011;23733;53.254;10.430;2022-07-29T01:14:13;3.53;;;1.70;;
37895;SDS011;23733;53.254;10.430;2022-07-29T01:16:42;3.37;;;1.80;;
37895;SDS011;23733;53.254;10.430;2022-07-29T01:22:18;3.90;;;1.80;;
37895;SDS011;23733;53.254;10.430;2022-07-29T01:25:05;4.47;;;1.93;;
37895;SDS011;23733;53.254;10.430;2022-07-29T01:27:41;3.67;;;1.90;;
37895;SDS011;23733;53.254;10.430;2022-07-29T01:30:16;3.23;;;1.70;;
37895;SDS011;23733;53.254;10.430;2022-07-29T01:32:44;3.70;;;2.10;;
37895;SDS011;23733;53.254;10.430;2022-07-29T01:35:16;5.77;;;1.90;;
37895;SDS011;23733;53.254;10.430;2022-07-29T01:37:57;5.73;;;2.00;;
37895;SDS011;23733;53.254;10.430;2022-07-29T01:40:43;2.17;;;1.60;;
37895;SDS011;23733;53.254;10.430;2022-07-29T01:43:37;6.43;;;1.73;;
37895;SDS011;23733;53.254;10.430;2022-07-29T01:46:09;4.03;;;2.20;;
37895;SDS011;23733;53.254;10.430;2022-07-29T01:51:08;3.10;;;1.67;;
37895;SDS011;23733;53.254;10.430;2022-07-29T01:56:37;7.77;;;2.30;;
37895;SDS011;23733;53.254;10.430;2022-07-29T01:59:04;4.20;;;1.90;;
37895;SDS011;23733;53.254;10.430;2022-07-29T02:01:32;3.93;;;2.23;;
37895;SDS011;23733;53.254;10.430;2022-07-29T02:04:01;6.87;;;1.80;;
37895;SDS011;23733;53.254;10.430;2022-07-29T02:06:29;3.30;;;2.10;;
37895;SDS011;23733;53.254;10.430;2022-07-29T02:08:58;7.03;;;2.50;;
37895;SDS011;23733;53.254;10.430;2022-07-29T02:11:25;3.47;;;1.90;;
37895;SDS011;23733;53.254;10.430;2022-07-29T02:13:52;7.30;;;1.90;;
37895;SDS011;23733;53.254;10.430;2022-07-29T02:16:21;5.43;;;2.10;;
37895;SDS011;23733;53.254;10.430;2022-07-29T02:18:49;5.10;;;2.20;;
37895;SDS011;23733;53.254;10.430;2022-07-29T02:21:19;3.33;;;1.80;;
37895;SDS011;23733;53.254;10.430;2022-07-29T02:23:48;3.97;;;2.20;;
37895;SDS011;23733;53.254;10.430;2022-07-29T02:26:16;4.13;;;2.10;;
37895;SDS011;23733;53.254;10.430;2022-07-29T02:28:44;9.03;;;1.80;;
37895;SDS011;23733;53.254;10.430;2022-07-29T02:31:11;4.03;;;2.13;;
37895;SDS011;23733;53.254;10.430;2022-07-29T02:33:39;3.83;;;2.00;;
37895;SDS011;23733;53.254;10.430;2022-07-29T02:36:06;7.10;;;2.40;;
37895;SDS011;23733;53.254;10.430;2022-07-29T02:38:33;3.27;;;2.20;;
37895;SDS011;23733;53.254;10.430;2022-07-29T02:41:17;5.70;;;2.20;;
37895;SDS011;23733;53.254;10.430;2022-07-29T02:44:02;5.27;;;2.00;;
37895;SDS011;23733;53.254;10.430;2022-07-29T02:46:32;4.83;;;1.97;;
37895;SDS011;23733;53.254;10.430;2022-07-29T02:51:40;4.97;;;2.27;;
37895;SDS011;23733;53.254;10.430;2022-07-29T02:57:22;3.20;;;1.80;;
37895;SDS011;23733;53.254;10.430;2022-07-29T03:00:07;7.07;;;2.40;;
37895;SDS011;23733;53.254;10.430;2022-07-29T03:02:39;4.20;;;2.00;;
37895;SDS011;23733;53.254;10.430;2022-07-29T03:05:10;3.90;;;1.93;;
37895;SDS011;23733;53.254;10.430;2022-07-29T03:07:45;3.63;;;1.93;;
37895;SDS011;23733;53.254;10.430;2022-07-29T03:10:14;3.67;;;1.90;;
37895;SDS011;23733;53.254;10.430;2022-07-29T03:12:41;3.93;;;2.30;;
37895;SDS011;23733;53.254;10.430;2022-07-29T03:15:08;5.50;;;2.10;;
37895;SDS011;23733;53.254;10.430;2022-07-29T03:17:35;4.83;;;1.90;;
37895;SDS011;23733;53.254;10.430;2022-07-29T03:20:03;4.07;;;1.97;;
37895;SDS011;23733;53.254;10.430;2022-07-29T03:22:30;7.10;;;2.60;;
37895;SDS011;23733;53.254;10.430;2022-07-29T03:24:56;5.07;;;2.20;;
37895;SDS011;23733;53.254;10.430;2022-07-29T03:27:22;4.67;;;2.20;;
37895;SDS011;23733;53.254;10.430;2022-07-29T03:29:48;7.27;;;2.67;;
37895;SDS011;23733;53.254;10.430;2022-07-29T03:32:14;4.67;;;2.20;;
37895;SDS011;23733;53.254;10.430;2022-07-29T03:34:40;5.90;;;2.00;;
37895;SDS011;23733;53.254;10.430;2022-07-29T03:37:06;7.77;;;2.60;;
37895;SDS011;23733;53.254;10.430;2022-07-29T03:39:35;5.60;;;2.00;;
37895;SDS011;23733;53.254;10.430;2022-07-29T03:42:05;4.63;;;1.87;;
37895;SDS011;23733;53.254;10.430;2022-07-29T03:44:33;4.57;;;2.13;;
37895;SDS011;23733;53.254;10.430;2022-07-29T03:47:00;6.53;;;2.00;;
37895;SDS011;23733;53.254;10.430;2022-07-29T03:49:29;4.57;;;2.17;;
37895;SDS011;23733;53.254;10.430;2022-07-29T03:51:57;5.03;;;1.93;;
37895;SDS011;23733;53.254;10.430;2022-07-29T03:54:23;2.77;;;1.97;;
37895;SDS011;23733;53.254;10.430;2022-07-29T03:56:50;6.10;;;2.10;;
37895;SDS011;23733;53.254;10.430;2022-07-29T03:59:17;6.00;;;2.17;;
37895;SDS011;23733;53.254;10.430;2022-07-29T04:01:45;6.60;;;2.07;;
37895;SDS011;23733;53.254;10.430;2022-07-29T04:04:11;5.70;;;2.40;;
37895;SDS011;23733;53.254;10.430;2022-07-29T04:06:38;4.50;;;1.93;;
37895;SDS011;23733;53.254;10.430;2022-07-29T04:09:08;3.20;;;1.97;;
37895;SDS011;23733;53.254;10.430;2022-07-29T04:11:35;6.63;;;2.23;;
37895;SDS011;23733;53.254;10.430;2022-07-29T04:14:05;7.60;;;2.47;;
37895;SDS011;23733;53.254;10.430;2022-07-29T04:16:31;6.43;;;2.23;;
37895;SDS011;23733;53.254;10.430;2022-07-29T04:18:58;5.00;;;1.80;;
37895;SDS011;23733;53.254;10.430;2022-07-29T04:21:24;5.90;;;2.37;;
37895;SDS011;23733;53.254;10.430;2022-07-29T04:23:50;3.43;;;2.07;;
37895;SDS011;23733;53.254;10.430;2022-07-29T04:26:17;3.50;;;1.97;;
37895;SDS011;23733;53.254;10.430;2022-07-29T04:28:44;6.37;;;2.13;;
37895;SDS011;23733;53.254;10.430;2022-07-29T04:31:10;4.03;;;2.03;;
37895;SDS011;23733;53.254;10.430;2022-07-29T04:33:37;4.03;;;2.00;;
37895;SDS011;23733;53.254;10.430;2022-07-29T04:36:03;7.53;;;2.30;;
37895;SDS011;23733;53.254;10.430;2022-07-29T04:38:30;7.93;;;2.37;;
37895;SDS011;23733;53.254;10.430;2022-07-29T04:40:56;3.50;;;1.60;;
37895;SDS011;23733;53.254;10.430;2022-07-29T04:43:22;7.27;;;2.60;;
37895;SDS011;23733;53.254;10.430;2022-07-29T04:45:48;4.40;;;2.20;;
37895;SDS011;23733;53.254;10.430;2022-07-29T04:48:14;5.07;;;2.13;;
37895;SDS011;23733;53.254;10.430;2022-07-29T04:50:40;5.67;;;2.37;;
37895;SDS011;23733;53.254;10.430;2022-07-29T04:53:07;5.23;;;1.90;;
37895;SDS011;23733;53.254;10.430;2022-07-29T04:55:33;5.47;;;2.03;;
37895;SDS011;23733;53.254;10.430;2022-07-29T04:57:59;3.43;;;2.10;;
37895;SDS011;23733;53.254;10.430;2022-07-29T05:00:25;3.77;;;2.03;;
37895;SDS011;23733;53.254;10.430;2022-07-29T05:02:51;5.50;;;2.40;;
37895;SDS011;23733;53.254;10.430;2022-07-29T05:05:17;3.87;;;2.20;;
37895;SDS011;23733;53.254;10.430;2022-07-29T05:07:43;3.80;;;2.13;;
37895;SDS011;23733;53.254;10.430;2022-07-29T05:10:09;4.23;;;2.00;;
37895;SDS011;23733;53.254;10.430;2022-07-29T05:12:37;4.43;;;2.20;;
37895;SDS011;23733;53.254;10.430;2022-07-29T05:15:03;4.23;;;2.10;;
37895;SDS011;23733;53.254;10.430;2022-07-29T05:17:29;6.60;;;2.30;;
37895;SDS011;23733;53.254;10.430;2022-07-29T05:19:55;3.30;;;1.90;;
37895;SDS011;23733;53.254;10.430;2022-07-29T05:22:21;4.83;;;1.87;;
37895;SDS011;23733;53.254;10.430;2022-07-29T05:24:47;5.70;;;2.13;;
37895;SDS011;23733;53.254;10.430;2022-07-29T05:27:13;3.83;;;1.93;;
37895;SDS011;23733;53.254;10.430;2022-07-29T05:29:39;6.53;;;2.10;;
37895;SDS011;23733;53.254;10.430;2022-07-29T05:32:06;4.73;;;2.20;;
37895;SDS011;23733;53.254;10.430;2022-07-29T05:34:32;5.20;;;2.00;;
37895;SDS011;23733;53.254;10.430;2022-07-29T05:36:58;7.33;;;2.40;;
37895;SDS011;23733;53.254;10.430;2022-07-29T05:39:24;4.67;;;2.10;;
37895;SDS011;23733;53.254;10.430;2022-07-29T05:41:50;3.43;;;1.90;;
37895;SDS011;23733;53.254;10.430;2022-07-29T05:44:16;6.00;;;2.13;;
37895;SDS011;23733;53.254;10.430;2022-07-29T05:46:42;3.10;;;1.93;;
37895;SDS011;23733;53.254;10.430;2022-07-29T05:49:08;6.60;;;2.50;;
37895;SDS011;23733;53.254;10.430;2022-07-29T05:51:34;6.13;;;2.20;;
37895;SDS011;23733;53.254;10.430;2022-07-29T05:54:00;5.13;;;1.83;;
37895;SDS011;23733;53.254;10.430;2022-07-29T05:56:27;4.47;;;1.97;;
37895;SDS011;23733;53.254;10.430;2022-07-29T05:58:53;5.17;;;2.37;;
37895;SDS011;23733;53.254;10.430;2022-07-29T06:01:20;5.97;;;1.93;;
37895;SDS011;23733;53.254;10.430;2022-07-29T06:03:46;8.77;;;2.33;;
37895;SDS011;23733;53.254;10.430;2022-07-29T06:06:12;5.30;;;1.90;;
37895;SDS011;23733;53.254;10.430;2022-07-29T06:08:38;8.20;;;2.63;;
37895;SDS011;23733;53.254;10.430;2022-07-29T06:11:05;6.50;;;2.10;;
37895;SDS011;23733;53.254;10.430;2022-07-29T06:13:31;4.57;;;2.00;;
37895;SDS011;23733;53.254;10.430;2022-07-29T06:15:57;4.73;;;2.00;;
37895;SDS011;23733;53.254;10.430;2022-07-29T06:18:23;8.43;;;2.27;;
37895;SDS011;23733;53.254;10.430;2022-07-29T06:20:50;5.40;;;2.20;;
37895;SDS011;23733;53.254;10.430;2022-07-29T06:23:16;5.13;;;2.03;;
37895;SDS011;23733;53.254;10.430;2022-07-29T06:25:43;6.23;;;2.20;;
37895;SDS011;23733;53.254;10.430;2022-07-29T06:28:09;6.73;;;2.20;;
37895;SDS011;23733;53.254;10.430;2022-07-29T06:30:36;3.37;;;1.83;;
37895;SDS011;23733;53.254;10.430;2022-07-29T06:33:02;5.00;;;2.20;;
37895;SDS011;23733;53.254;10.430;2022-07-29T06:35:29;4.13;;;1.90;;
37895;SDS011;23733;53.254;10.430;2022-07-29T06:37:55;5.17;;;2.20;;
37895;SDS011;23733;53.254;10.430;2022-07-29T06:40:21;6.77;;;2.20;;
37895;SDS011;23733;53.254;10.430;2022-07-29T06:43:06;4.53;;;2.30;;
37895;SDS011;23733;53.254;10.430;2022-07-29T06:45:35;4.67;;;2.10;;
37895;SDS011;23733;53.254;10.430;2022-07-29T06:48:01;4.17;;;1.83;;
37895;SDS011;23733;53.254;10.430;2022-07-29T06:50:27;7.60;;;2.10;;
37895;SDS011;23733;53.254;10.430;2022-07-29T06:52:53;5.50;;;2.00;;
37895;SDS011;23733;53.254;10.430;2022-07-29T06:55:19;6.77;;;2.13;;
37895;SDS011;23733;53.254;10.430;2022-07-29T06:57:45;5.40;;;2.13;;
37895;SDS011;23733;53.254;10.430;2022-07-29T07:00:12;6.20;;;1.83;;
37895;SDS011;23733;53.254;10.430;2022-07-29T07:02:38;7.10;;;2.00;;
37895;SDS011;23733;53.254;10.430;2022-07-29T07:05:04;7.60;;;2.13;;
37895;SDS011;23733;53.254;10.430;2022-07-29T07:07:31;6.37;;;2.37;;
37895;SDS011;23733;53.254;10.430;2022-07-29T07:09:57;8.87;;;2.20;;
37895;SDS011;23733;53.254;10.430;2022-07-29T07:12:23;3.07;;;2.20;;
37895;SDS011;23733;53.254;10.430;2022-07-29T07:14:49;9.73;;;2.30;;
37895;SDS011;23733;53.254;10.430;2022-07-29T07:17:15;5.73;;;2.13;;
37895;SDS011;23733;53.254;10.430;2022-07-29T07:19:41;10.30;;;2.03;;
37895;SDS011;23733;53.254;10.430;2022-07-29T07:22:07;7.90;;;2.20;;
37895;SDS011;23733;53.254;10.430;2022-07-29T07:24:33;5.83;;;2.57;;
37895;SDS011;23733;53.254;10.430;2022-07-29T07:26:59;5.47;;;2.23;;
37895;SDS011;23733;53.254;10.430;2022-07-29T07:29:25;8.30;;;2.03;;
37895;SDS011;23733;53.254;10.430;2022-07-29T07:31:51;5.53;;;1.93;;
37895;SDS011;23733;53.254;10.430;2022-07-29T07:34:17;6.20;;;2.20;;
37895;SDS011;23733;53.254;10.430;2022-07-29T07:36:43;4.40;;;2.00;;
37895;SDS011;23733;53.254;10.430;2022-07-29T07:39:09;4.73;;;2.10;;
37895;SDS011;23733;53.254;10.430;2022-07-29T07:41:35;5.03;;;2.03;;
37895;SDS011;23733;53.254;10.430;2022-07-29T07:44:01;5.03;;;1.87;;
37895;SDS011;23733;53.254;10.430;2022-07-29T07:46:27;3.43;;;1.97;;
37895;SDS011;23733;53.254;10.430;2022-07-29T07:48:53;6.13;;;1.80;;
37895;SDS011;23733;53.254;10.430;2022-07-29T07:51:19;3.70;;;1.80;;
37895;SDS011;23733;53.254;10.430;2022-07-29T07:53:45;3.80;;;2.03;;
37895;SDS011;23733;53.254;10.430;2022-07-29T07:56:15;3.70;;;1.90;;
37895;SDS011;23733;53.254;10.430;2022-07-29T07:58:41;4.30;;;2.00;;
37895;SDS011;23733;53.254;10.430;2022-07-29T08:01:08;5.50;;;2.07;;
37895;SDS011;23733;53.254;10.430;2022-07-29T08:03:35;5.97;;;1.80;;
37895;SDS011;23733;53.254;10.430;2022-07-29T08:06:02;3.80;;;2.10;;
37895;SDS011;23733;53.254;10.430;2022-07-29T08:08:28;7.30;;;2.17;;
37895;SDS011;23733;53.254;10.430;2022-07-29T08:10:54;4.73;;;2.00;;
37895;SDS011;23733;53.254;10.430;2022-07-29T08:13:25;5.83;;;1.70;;
37895;SDS011;23733;53.254;10.430;2022-07-29T08:15:53;4.40;;;1.93;;
37895;SDS011;23733;53.254;10.430;2022-07-29T08:18:23;4.60;;;1.93;;
37895;SDS011;23733;53.254;10.430;2022-07-29T08:20:50;6.70;;;1.80;;
37895;SDS011;23733;53.254;10.430;2022-07-29T08:23:16;6.93;;;2.00;;
37895;SDS011;23733;53.254;10.430;2022-07-29T08:25:44;5.60;;;1.70;;
37895;SDS011;23733;53.254;10.430;2022-07-29T08:28:10;6.63;;;1.93;;
37895;SDS011;23733;53.254;10.430;2022-07-29T08:30:36;6.90;;;1.90;;
37895;SDS011;23733;53.254;10.430;2022-07-29T08:33:02;4.87;;;2.03;;
37895;SDS011;23733;53.254;10.430;2022-07-29T08:35:28;4.23;;;2.03;;
37895;SDS011;23733;53.254;10.430;2022-07-29T08:37:55;6.30;;;2.00;;
37895;SDS011;23733;53.254;10.430;2022-07-29T08:40:22;5.90;;;1.93;;
37895;SDS011;23733;53.254;10.430;2022-07-29T08:42:49;4.80;;;1.90;;
37895;SDS011;23733;53.254;10.430;2022-07-29T08:45:16;4.20;;;2.00;;
37895;SDS011;23733;53.254;10.430;2022-07-29T08:47:43;3.47;;;1.97;;
37895;SDS011;23733;53.254;10.430;2022-07-29T08:50:10;5.53;;;2.10;;
37895;SDS011;23733;53.254;10.430;2022-07-29T08:52:39;5.47;;;1.90;;
37895;SDS011;23733;53.254;10.430;2022-07-29T08:55:07;8.43;;;1.80;;
37895;SDS011;23733;53.254;10.430;2022-07-29T08:57:34;3.30;;;1.73;;
37895;SDS011;23733;53.254;10.430;2022-07-29T09:00:01;8.33;;;2.00;;
37895;SDS011;23733;53.254;10.430;2022-07-29T09:02:29;2.50;;;1.60;;
37895;SDS011;23733;53.254;10.430;2022-07-29T09:05:01;3.63;;;1.80;;
37895;SDS011;23733;53.254;10.430;2022-07-29T09:07:28;3.97;;;1.60;;
37895;SDS011;23733;53.254;10.430;2022-07-29T09:09:54;4.00;;;1.77;;
37895;SDS011;23733;53.254;10.430;2022-07-29T09:12:20;6.87;;;1.77;;
37895;SDS011;23733;53.254;10.430;2022-07-29T09:14:47;3.13;;;1.63;;
37895;SDS011;23733;53.254;10.430;2022-07-29T09:17:13;3.20;;;1.60;;
37895;SDS011;23733;53.254;10.430;2022-07-29T09:19:42;4.37;;;1.67;;
37895;SDS011;23733;53.254;10.430;2022-07-29T09:22:08;7.13;;;1.80;;
37895;SDS011;23733;53.254;10.430;2022-07-29T09:24:36;4.13;;;1.73;;
37895;SDS011;23733;53.254;10.430;2022-07-29T09:27:07;5.90;;;1.70;;
37895;SDS011;23733;53.254;10.430;2022-07-29T09:29:34;4.47;;;1.70;;
37895;SDS011;23733;53.254;10.430;2022-07-29T09:32:00;5.90;;;2.00;;
37895;SDS011;23733;53.254;10.430;2022-07-29T09:34:27;4.57;;;1.93;;
37895;SDS011;23733;53.254;10.430;2022-07-29T09:36:56;6.57;;;2.00;;
37895;SDS011;23733;53.254;10.430;2022-07-29T09:39:26;5.73;;;1.60;;
37895;SDS011;23733;53.254;10.430;2022-07-29T09:41:54;5.10;;;1.97;;
37895;SDS011;23733;53.254;10.430;2022-07-29T09:44:21;6.40;;;1.80;;
37895;SDS011;23733;53.254;10.430;2022-07-29T09:46:54;4.00;;;1.50;;
37895;SDS011;23733;53.254;10.430;2022-07-29T09:49:20;6.03;;;1.77;;
37895;SDS011;23733;53.254;10.430;2022-07-29T09:51:46;3.80;;;1.60;;
37895;SDS011;23733;53.254;10.430;2022-07-29T09:54:22;4.23;;;1.50;;
37895;SDS011;23733;53.254;10.430;2022-07-29T09:56:53;4.80;;;1.90;;
37895;SDS011;23733;53.254;10.430;2022-07-29T09:59:20;4.83;;;1.70;;
37895;SDS011;23733;53.254;10.430;2022-07-29T10:01:49;3.97;;;1.53;;
37895;SDS011;23733;53.254;10.430;2022-07-29T10:04:15;3.13;;;1.50;;
37895;SDS011;23733;53.254;10.430;2022-07-29T10:07:01;8.17;;;2.07;;
37895;SDS011;23733;53.254;10.430;2022-07-29T10:09:30;5.10;;;1.80;;
37895;SDS011;23733;53.254;10.430;2022-07-29T10:12:07;4.43;;;1.77;;
37895;SDS011;23733;53.254;10.430;2022-07-29T10:14:39;3.90;;;1.60;;
37895;SDS011;23733;53.254;10.430;2022-07-29T10:17:06;5.77;;;1.60;;
37895;SDS011;23733;53.254;10.430;2022-07-29T10:19:33;7.80;;;2.00;;
37895;SDS011;23733;53.254;10.430;2022-07-29T10:22:02;2.93;;;1.63;;
37895;SDS011;23733;53.254;10.430;2022-07-29T10:24:33;6.00;;;1.77;;
37895;SDS011;23733;53.254;10.430;2022-07-29T10:27:01;5.70;;;1.53;;
37895;SDS011;23733;53.254;10.430;2022-07-29T10:29:29;5.47;;;1.77;;
37895;SDS011;23733;53.254;10.430;2022-07-29T10:32:15;6.37;;;1.70;;
37895;SDS011;23733;53.254;10.430;2022-07-29T10:46:49;6.80;;;1.40;;
37895;SDS011;23733;53.254;10.430;2022-07-29T10:49:17;3.97;;;1.57;;
37895;SDS011;23733;53.254;10.430;2022-07-29T10:51:52;3.37;;;1.40;;
37895;SDS011;23733;53.254;10.430;2022-07-29T10:57:11;5.17;;;1.60;;
37895;SDS011;23733;53.254;10.430;2022-07-29T10:59:38;4.33;;;1.70;;
37895;SDS011;23733;53.254;10.430;2022-07-29T11:04:59;4.33;;;1.50;;
37895;SDS011;23733;53.254;10.430;2022-07-29T11:07:26;3.70;;;1.50;;
37895;SDS011;23733;53.254;10.430;2022-07-29T11:15:18;4.87;;;1.70;;
37895;SDS011;23733;53.254;10.430;2022-07-29T11:20:42;4.03;;;1.40;;
37895;SDS011;23733;53.254;10.430;2022-07-29T11:28:54;3.90;;;1.43;;
37895;SDS011;23733;53.254;10.430;2022-07-29T11:31:31;1.80;;;1.30;;
37895;SDS011;23733;53.254;10.430;2022-07-29T11:34:15;2.40;;;1.40;;
37895;SDS011;23733;53.254;10.430;2022-07-29T11:39:27;4.77;;;1.50;;
37895;SDS011;23733;53.254;10.430;2022-07-29T11:42:19;5.20;;;1.60;;
37895;SDS011;23733;53.254;10.430;2022-07-29T11:44:53;6.33;;;1.50;;
37895;SDS011;23733;53.254;10.430;2022-07-29T11:47:21;3.50;;;1.40;;
37895;SDS011;23733;53.254;10.430;2022-07-29T11:49:48;5.40;;;1.60;;
37895;SDS011;23733;53.254;10.430;2022-07-29T11:52:15;4.00;;;1.53;;
37895;SDS011;23733;53.254;10.430;2022-07-29T11:54:42;3.27;;;1.50;;
37895;SDS011;23733;53.254;10.430;2022-07-29T11:57:08;7.30;;;1.70;;
37895;SDS011;23733;53.254;10.430;2022-07-29T11:59:39;5.00;;;1.60;;
37895;SDS011;23733;53.254;10.430;2022-07-29T12:02:06;5.23;;;1.30;;
37895;SDS011;23733;53.254;10.430;2022-07-29T12:04:49;4.23;;;1.50;;
37895;SDS011;23733;53.254;10.430;2022-07-29T12:07:15;6.07;;;1.67;;
37895;SDS011;23733;53.254;10.430;2022-07-29T12:09:51;5.27;;;1.70;;
37895;SDS011;23733;53.254;10.430;2022-07-29T12:12:18;6.20;;;1.40;;
37895;SDS011;23733;53.254;10.430;2022-07-29T12:14:44;2.57;;;1.40;;
37895;SDS011;23733;53.254;10.430;2022-07-29T12:17:27;9.13;;;1.50;;
37895;SDS011;23733;53.254;10.430;2022-07-29T12:19:54;4.10;;;1.50;;
37895;SDS011;23733;53.254;10.430;2022-07-29T12:22:30;5.70;;;1.37;;
37895;SDS011;23733;53.254;10.430;2022-07-29T12:25:00;4.70;;;1.57;;
37895;SDS011;23733;53.254;10.430;2022-07-29T12:27:27;7.93;;;1.57;;
37895;SDS011;23733;53.254;10.430;2022-07-29T12:29:57;2.30;;;1.40;;
37895;SDS011;23733;53.254;10.430;2022-07-29T12:32:30;4.67;;;1.60;;
37895;SDS011;23733;53.254;10.430;2022-07-29T12:34:57;4.80;;;1.50;;
37895;SDS011;23733;53.254;10.430;2022-07-29T12:37:24;5.37;;;1.43;;
37895;SDS011;23733;53.254;10.430;2022-07-29T12:39:50;8.33;;;1.50;;
37895;SDS011;23733;53.254;10.430;2022-07-29T12:42:17;2.60;;;1.40;;
37895;SDS011;23733;53.254;10.430;2022-07-29T12:44:47;3.87;;;1.50;;
37895;SDS011;23733;53.254;10.430;2022-07-29T12:47:14;4.77;;;1.43;;
37895;SDS011;23733;53.254;10.430;2022-07-29T12:49:41;3.23;;;1.50;;
37895;SDS011;23733;53.254;10.430;2022-07-29T12:52:23;5.70;;;1.50;;
37895;SDS011;23733;53.254;10.430;2022-07-29T12:54:49;4.57;;;1.37;;
37895;SDS011;23733;53.254;10.430;2022-07-29T12:57:16;2.60;;;1.40;;
37895;SDS011;23733;53.254;10.430;2022-07-29T12:59:42;3.23;;;1.57;;
37895;SDS011;23733;53.254;10.430;2022-07-29T13:02:20;2.17;;;1.33;;
37895;SDS011;23733;53.254;10.430;2022-07-29T13:04:57;3.43;;;1.70;;
37895;SDS011;23733;53.254;10.430;2022-07-29T13:07:24;10.43;;;1.70;;
37895;SDS011;23733;53.254;10.430;2022-07-29T13:09:52;6.23;;;1.70;;
37895;SDS011;23733;53.254;10.430;2022-07-29T13:12:19;5.90;;;1.97;;
37895;SDS011;23733;53.254;10.430;2022-07-29T13:14:47;6.77;;;1.70;;
37895;SDS011;23733;53.254;10.430;2022-07-29T13:17:15;3.87;;;1.73;;
37895;SDS011;23733;53.254;10.430;2022-07-29T13:19:45;4.10;;;1.60;;
37895;SDS011;23733;53.254;10.430;2022-07-29T13:22:16;2.67;;;1.50;;
37895;SDS011;23733;53.254;10.430;2022-07-29T13:27:13;4.83;;;1.80;;
37895;SDS011;23733;53.254;10.430;2022-07-29T13:29:39;4.27;;;1.77;;
37895;SDS011;23733;53.254;10.430;2022-07-29T13:32:05;4.30;;;1.47;;
37895;SDS011;23733;53.254;10.430;2022-07-29T13:34:32;6.77;;;1.40;;
37895;SDS011;23733;53.254;10.430;2022-07-29T13:36:58;6.00;;;1.60;;
37895;SDS011;23733;53.254;10.430;2022-07-29T13:39:25;6.67;;;1.67;;
37895;SDS011;23733;53.254;10.430;2022-07-29T13:41:51;5.23;;;1.50;;
37895;SDS011;23733;53.254;10.430;2022-07-29T13:44:17;6.07;;;1.80;;
37895;SDS011;23733;53.254;10.430;2022-07-29T13:46:44;2.90;;;1.60;;
37895;SDS011;23733;53.254;10.430;2022-07-29T13:49:10;5.73;;;1.80;;
37895;SDS011;23733;53.254;10.430;2022-07-29T13:51:37;3.85;;;1.60;;
37895;SDS011;23733;53.254;10.430;2022-07-29T13:54:03;5.50;;;1.50;;
37895;SDS011;23733;53.254;10.430;2022-07-29T13:56:30;5.77;;;1.77;;
37895;SDS011;23733;53.254;10.430;2022-07-29T13:58:56;3.77;;;1.83;;
37895;SDS011;23733;53.254;10.430;2022-07-29T14:01:23;2.63;;;1.50;;
37895;SDS011;23733;53.254;10.430;2022-07-29T14:03:49;7.93;;;1.70;;
37895;SDS011;23733;53.254;10.430;2022-07-29T14:06:15;4.97;;;1.50;;
37895;SDS011;23733;53.254;10.430;2022-07-29T14:08:42;4.83;;;2.03;;
37895;SDS011;23733;53.254;10.430;2022-07-29T14:11:08;6.47;;;1.93;;
37895;SDS011;23733;53.254;10.430;2022-07-29T14:13:34;4.57;;;1.70;;
37895;SDS011;23733;53.254;10.430;2022-07-29T14:16:00;4.75;;;1.80;;
37895;SDS011;23733;53.254;10.430;2022-07-29T14:18:27;2.97;;;1.33;;
37895;SDS011;23733;53.254;10.430;2022-07-29T14:20:53;3.57;;;1.50;;
37895;SDS011;23733;53.254;10.430;2022-07-29T14:23:19;5.60;;;1.93;;
37895;SDS011;23733;53.254;10.430;2022-07-29T14:25:46;3.42;;;1.70;;
37895;SDS011;23733;53.254;10.430;2022-07-29T14:28:12;7.90;;;1.73;;
37895;SDS011;23733;53.254;10.430;2022-07-29T14:30:39;6.45;;;1.88;;
37895;SDS011;23733;53.254;10.430;2022-07-29T14:33:05;3.22;;;1.58;;
37895;SDS011;23733;53.254;10.430;2022-07-29T14:35:31;4.67;;;1.53;;
37895;SDS011;23733;53.254;10.430;2022-07-29T14:37:57;7.13;;;1.70;;
37895;SDS011;23733;53.254;10.430;2022-07-29T14:40:24;6.23;;;1.90;;
37895;SDS011;23733;53.254;10.430;2022-07-29T14:42:51;2.53;;;1.55;;
37895;SDS011;23733;53.254;10.430;2022-07-29T14:45:17;2.60;;;1.70;;
37895;SDS011;23733;53.254;10.430;2022-07-29T14:47:43;5.90;;;1.90;;
37895;SDS011;23733;53.254;10.430;2022-07-29T14:50:09;4.60;;;1.80;;
37895;SDS011;23733;53.254;10.430;2022-07-29T14:52:36;4.13;;;1.73;;
37895;SDS011;23733;53.254;10.430;2022-07-29T14:55:02;4.17;;;1.80;;
37895;SDS011;23733;53.254;10.430;2022-07-29T14:57:29;3.87;;;1.73;;
37895;SDS011;23733;53.254;10.430;2022-07-29T14:59:55;5.60;;;1.75;;
37895;SDS011;23733;53.254;10.430;2022-07-29T15:02:21;6.72;;;1.80;;
37895;SDS011;23733;53.254;10.430;2022-07-29T15:04:47;3.40;;;1.77;;
37895;SDS011;23733;53.254;10.430;2022-07-29T15:07:14;4.15;;;1.67;;
37895;SDS011;23733;53.254;10.430;2022-07-29T15:09:41;11.40;;;1.93;;
37895;SDS011;23733;53.254;10.430;2022-07-29T15:12:07;3.03;;;1.67;;
37895;SDS011;23733;53.254;10.430;2022-07-29T15:14:35;6.30;;;1.88;;
37895;SDS011;23733;53.254;10.430;2022-07-29T15:17:02;3.58;;;1.65;;
37895;SDS011;23733;53.254;10.430;2022-07-29T15:19:28;3.27;;;1.57;;
37895;SDS011;23733;53.254;10.430;2022-07-29T15:21:54;5.20;;;1.87;;
37895;SDS011;23733;53.254;10.430;2022-07-29T15:24:20;13.13;;;1.87;;
37895;SDS011;23733;53.254;10.430;2022-07-29T15:26:46;5.50;;;1.63;;
37895;SDS011;23733;53.254;10.430;2022-07-29T15:29:13;7.97;;;1.70;;